createdAt,value
2022-10-11T00:00:41.131Z,95628.69
2022-10-11T00:03:09.585Z,95625.03
2022-10-11T00:05:37.746Z,95625.56
2022-10-11T00:08:25.973Z,95623.75
2022-10-11T00:10:58.591Z,95626.38
2022-10-11T00:13:27.027Z,95617.22
2022-10-11T00:15:57.230Z,95620.63
2022-10-11T00:18:25.451Z,95619.63
2022-10-11T00:21:02.138Z,95623.50
2022-10-11T00:23:30.250Z,95622.47
2022-10-11T00:25:59.886Z,95622.16
2022-10-11T00:28:28.255Z,95622.94
2022-10-11T00:30:57.996Z,95625.81
2022-10-11T00:33:26.028Z,95631.22
2022-10-11T00:35:54.026Z,95628.50
2022-10-11T00:38:21.972Z,95633.78
2022-10-11T00:40:50.059Z,95632.16
2022-10-11T00:43:19.526Z,95637.44
2022-10-11T00:46:25.620Z,95627.34
2022-10-11T00:48:58.354Z,95627.16
2022-10-11T00:51:37.257Z,95628.31
2022-10-11T00:54:07.144Z,95631.97
2022-10-11T00:56:38.935Z,95632.53
2022-10-11T00:59:13.595Z,95625.91
2022-10-11T01:01:43.102Z,95635.88
2022-10-11T01:04:11.223Z,95627.97
2022-10-11T01:06:39.587Z,95623.84
2022-10-11T01:09:08.159Z,95621.69
2022-10-11T01:11:39.038Z,95624.31
2022-10-11T01:14:28.999Z,95624.00
2022-10-11T01:17:04.920Z,95629.25
2022-10-11T01:19:52.356Z,95621.59
2022-10-11T01:22:36.822Z,95624.00
2022-10-11T01:25:25.328Z,95624.78
2022-10-11T01:28:08.622Z,95626.06
2022-10-11T01:30:39.300Z,95619.78
2022-10-11T01:33:18.347Z,95611.88
2022-10-11T01:35:50.385Z,95610.28
2022-10-11T01:38:22.620Z,95617.63
2022-10-11T01:40:53.608Z,95613.28
2022-10-11T01:43:23.881Z,95608.50
2022-10-11T01:45:55.687Z,95607.38
2022-10-11T01:48:23.745Z,95605.31
2022-10-11T01:50:55.325Z,95610.56
2022-10-11T01:53:45.244Z,95611.81
2022-10-11T01:56:26.792Z,95611.50
2022-10-11T01:59:07.400Z,95613.53
2022-10-11T02:01:49.105Z,95606.69
2022-10-11T02:04:22.188Z,95609.44
2022-10-11T02:06:57.888Z,95608.63
2022-10-11T02:09:34.836Z,95606.25
2022-10-11T02:12:08.447Z,95602.13
2022-10-11T02:14:40.544Z,95603.38
2022-10-11T02:17:13.845Z,95597.78
2022-10-11T02:19:46.026Z,95598.25
2022-10-11T02:22:19.371Z,95593.00
2022-10-11T02:24:51.602Z,95595.84
2022-10-11T02:27:23.539Z,95589.34
2022-10-11T02:29:54.492Z,95597.44
2022-10-11T02:32:26.489Z,95592.44
2022-10-11T02:34:57.152Z,95588.19
2022-10-11T02:37:31.796Z,95586.03
2022-10-11T02:40:07.768Z,95590.72
2022-10-11T02:42:42.956Z,95594.38
2022-10-11T02:45:18.018Z,95585.00
2022-10-11T02:47:48.848Z,95586.03
2022-10-11T02:50:17.221Z,95584.19
2022-10-11T02:52:45.299Z,95587.38
2022-10-11T02:55:13.496Z,95583.41
2022-10-11T02:57:41.515Z,95579.75
2022-10-11T03:00:10.591Z,95584.19
2022-10-11T03:02:38.524Z,95581.81
2022-10-11T03:05:08.421Z,95583.06
2022-10-11T03:07:36.440Z,95594.84
2022-10-11T03:10:04.996Z,95590.06
2022-10-11T03:12:33.241Z,95590.06
2022-10-11T03:15:01.322Z,95588.47
2022-10-11T03:17:36.551Z,95587.91
2022-10-11T03:20:07.816Z,95587.78
2022-10-11T03:22:35.843Z,95594.06
2022-10-11T03:25:04.907Z,95587.78
2022-10-11T03:27:33.800Z,95596.69
2022-10-11T03:30:02.055Z,95593.03
2022-10-11T03:32:30.442Z,95604.00
2022-10-11T03:34:58.640Z,95598.75
2022-10-11T03:37:28.147Z,95599.22
2022-10-11T03:39:56.191Z,95604.47
2022-10-11T03:42:24.204Z,95604.47
2022-10-11T03:44:52.172Z,95604.47
2022-10-11T03:47:20.508Z,95606.53
2022-10-11T03:49:48.502Z,95607.78
2022-10-11T03:52:16.550Z,95601.16
2022-10-11T03:54:46.002Z,95604.59
2022-10-11T03:57:14.024Z,95607.44
2022-10-11T03:59:41.965Z,95595.81
2022-10-11T04:02:10.080Z,95601.41
2022-10-11T04:04:38.645Z,95609.97
2022-10-11T04:07:06.839Z,95606.75
2022-10-11T04:09:35.135Z,95609.38
2022-10-11T04:12:05.154Z,95601.97
2022-10-11T04:14:33.124Z,95607.22
2022-10-11T04:17:01.087Z,95607.22
2022-10-11T04:19:29.846Z,95605.16
2022-10-11T04:21:57.816Z,95603.78
2022-10-11T04:24:25.795Z,95600.38
2022-10-11T04:26:53.737Z,95604.03
2022-10-11T04:29:23.146Z,95598.44
2022-10-11T04:31:51.248Z,95602.91
2022-10-11T04:34:19.589Z,95602.31
2022-10-11T04:36:50.066Z,95602.22
2022-10-11T04:39:18.502Z,95604.84
2022-10-11T04:41:46.451Z,95607.81
2022-10-11T04:44:14.479Z,95609.06
2022-10-11T04:46:43.842Z,95598.56
2022-10-11T04:49:11.767Z,95605.41
2022-10-11T04:51:40.113Z,95602.22
2022-10-11T04:54:08.070Z,95600.63
2022-10-11T04:56:36.045Z,95605.88
2022-10-11T04:59:04.079Z,95599.03
2022-10-11T05:01:32.024Z,95600.84
2022-10-11T05:04:01.394Z,95605.16
2022-10-11T05:06:29.421Z,95605.63
2022-10-11T05:08:57.453Z,95603.56
2022-10-11T05:11:25.529Z,95600.38
2022-10-11T05:13:53.537Z,95610.88
2022-10-11T05:16:21.498Z,95606.09
2022-10-11T05:18:49.544Z,95611.91
2022-10-11T05:21:21.364Z,95599.59
2022-10-11T05:23:51.117Z,95604.50
2022-10-11T05:26:19.272Z,95601.31
2022-10-11T05:28:48.077Z,95600.84
2022-10-11T05:31:16.574Z,95604.03
2022-10-11T05:33:44.882Z,95602.91
2022-10-11T05:36:13.521Z,95608.59
2022-10-11T05:38:43.014Z,95609.50
2022-10-11T05:41:14.860Z,95609.94
2022-10-11T05:43:44.558Z,95611.56
2022-10-11T05:46:15.820Z,95607.22
2022-10-11T05:48:44.099Z,95607.78
2022-10-11T05:51:13.042Z,95607.91
2022-10-11T05:53:42.591Z,95614.75
2022-10-11T05:56:20.537Z,95610.53
2022-10-11T05:58:48.802Z,95610.28
2022-10-11T06:01:22.038Z,95617.81
2022-10-11T06:03:50.453Z,95616.78
2022-10-11T06:06:18.904Z,95623.63
2022-10-11T06:08:48.918Z,95619.97
2022-10-11T06:11:18.839Z,95625.22
2022-10-11T06:13:46.893Z,95618.38
2022-10-11T06:16:14.828Z,95627.28
2022-10-11T06:18:42.862Z,95630.47
2022-10-11T06:21:10.978Z,95635.28
2022-10-11T06:23:38.971Z,95635.28
2022-10-11T06:26:09.981Z,95637.69
2022-10-11T06:28:38.867Z,95638.03
2022-10-11T06:31:07.804Z,95644.06
2022-10-11T06:33:36.218Z,95647.59
2022-10-11T06:36:07.645Z,95643.50
2022-10-11T06:38:37.281Z,95643.03
2022-10-11T06:41:18.010Z,95641.56
2022-10-11T06:43:46.787Z,95650.59
2022-10-11T06:46:14.736Z,95641.22
2022-10-11T06:48:44.542Z,95652.84
2022-10-11T06:51:13.168Z,95647.59
2022-10-11T06:53:41.260Z,95650.78
2022-10-11T06:56:11.895Z,95658.66
2022-10-11T06:58:41.809Z,95662.69
2022-10-11T07:01:12.952Z,95668.25
2022-10-11T07:03:40.990Z,95667.81
2022-10-11T07:06:11.236Z,95675.69
2022-10-11T07:08:40.523Z,95670.09
2022-10-11T07:11:10.255Z,95672.25
2022-10-11T07:13:38.871Z,95678.53
2022-10-11T07:16:11.081Z,95681.06
2022-10-11T07:18:39.142Z,95686.84
2022-10-11T07:21:08.805Z,95684.56
2022-10-11T07:23:36.754Z,95682.38
2022-10-11T07:26:05.639Z,95695.97
2022-10-11T07:28:35.014Z,95685.78
2022-10-11T07:31:06.216Z,95687.72
2022-10-11T07:33:35.811Z,95681.97
2022-10-11T07:36:05.721Z,95684.03
2022-10-11T07:38:34.341Z,95681.97
2022-10-11T07:41:06.866Z,95680.38
2022-10-11T07:43:34.837Z,95688.97
2022-10-11T07:46:04.586Z,95690.03
2022-10-11T07:48:34.233Z,95685.47
2022-10-11T07:51:08.893Z,95687.97
2022-10-11T07:53:41.318Z,95688.69
2022-10-11T07:56:10.507Z,95685.69
2022-10-11T07:58:38.471Z,95692.56
2022-10-11T08:01:07.048Z,95699.97
2022-10-11T08:03:35.163Z,95709.00
2022-10-11T08:06:04.422Z,95700.75
2022-10-11T08:08:33.991Z,95694.78
2022-10-11T08:11:02.118Z,95693.59
2022-10-11T08:13:30.087Z,95696.47
2022-10-11T08:15:58.190Z,95698.63
2022-10-11T08:18:26.518Z,95695.50
2022-10-11T08:20:54.525Z,95692.63
2022-10-11T08:23:22.490Z,95693.75
2022-10-11T08:25:58.059Z,95694.22
2022-10-11T08:28:26.068Z,95692.63
2022-10-11T08:30:55.744Z,95688.47
2022-10-11T08:33:24.928Z,95686.56
2022-10-11T08:35:54.147Z,95696.75
2022-10-11T08:38:22.610Z,95689.44
2022-10-11T08:40:55.244Z,95686.88
2022-10-11T08:43:34.047Z,95684.34
2022-10-11T08:46:04.258Z,95693.94
2022-10-11T08:48:36.864Z,95686.59
2022-10-11T08:51:14.753Z,95679.75
2022-10-11T08:53:48.982Z,95684.84
2022-10-11T08:56:19.447Z,95686.78
2022-10-11T08:58:53.715Z,95680.41
2022-10-11T09:01:24.589Z,95681.03
2022-10-11T09:03:53.709Z,95670.69
2022-10-11T09:06:33.380Z,95675.22
2022-10-11T09:09:19.535Z,95670.09
2022-10-11T09:12:01.490Z,95671.19
2022-10-11T09:14:53.274Z,95678.06
2022-10-11T09:17:34.850Z,95673.75
2022-10-11T09:20:28.435Z,95673.28
2022-10-11T09:23:03.903Z,95674.06
2022-10-11T09:25:35.872Z,95680.31
2022-10-11T09:28:18.830Z,95677.50
2022-10-11T09:30:51.764Z,95675.91
2022-10-11T09:33:22.085Z,95672.78
2022-10-11T09:35:52.304Z,95675.47
2022-10-11T09:38:29.083Z,95681.84
2022-10-11T09:41:07.132Z,95675.78
2022-10-11T09:43:36.690Z,95677.22
2022-10-11T09:46:05.341Z,95683.91
2022-10-11T09:48:40.476Z,95677.50
2022-10-11T09:51:16.276Z,95672.28
2022-10-11T09:53:53.450Z,95679.13
2022-10-11T09:56:22.596Z,95678.66
2022-10-11T09:59:08.274Z,95680.78
2022-10-11T10:01:36.757Z,95682.53
2022-10-11T10:04:08.074Z,95691.44
2022-10-11T10:06:36.758Z,95687.22
2022-10-11T10:09:27.079Z,95683.88
2022-10-11T10:11:55.889Z,95684.13
2022-10-11T10:14:28.220Z,95682.84
2022-10-11T10:17:02.845Z,95687.31
2022-10-11T10:19:35.773Z,95683.94
2022-10-11T10:22:03.770Z,95684.81
2022-10-11T10:24:39.260Z,95689.50
2022-10-11T10:27:20.906Z,95686.16
2022-10-11T10:30:14.412Z,95687.94
2022-10-11T10:32:50.033Z,95681.59
2022-10-11T10:35:28.425Z,95678.97
2022-10-11T10:38:06.523Z,95678.91
2022-10-11T10:40:40.684Z,95678.97
2022-10-11T10:43:15.773Z,95673.69
2022-10-11T10:46:17.945Z,95668.34
2022-10-11T10:49:28.789Z,95665.59
2022-10-11T10:52:03.167Z,95660.91
2022-10-11T10:54:41.893Z,95657.22
2022-10-11T10:57:18.411Z,95655.22
2022-10-11T10:59:56.156Z,95664.88
2022-10-11T11:02:41.031Z,95655.19
2022-10-11T11:05:21.128Z,95657.75
2022-10-11T11:07:54.513Z,95654.06
2022-10-11T11:10:25.701Z,95652.47
2022-10-11T11:13:08.614Z,95650.41
2022-10-11T11:15:42.078Z,95643.13
2022-10-11T11:18:28.612Z,95642.16
2022-10-11T11:21:11.428Z,95644.28
2022-10-11T11:23:47.587Z,95644.00
2022-10-11T11:26:24.664Z,95637.44
2022-10-11T11:29:04.610Z,95635.91
2022-10-11T11:31:46.204Z,95636.97
2022-10-11T11:34:23.232Z,95641.00
2022-10-11T11:36:56.689Z,95635.78
2022-10-11T11:39:27.117Z,95628.16
2022-10-11T11:42:00.416Z,95631.28
2022-10-11T11:44:32.970Z,95635.03
2022-10-11T11:47:04.357Z,95636.63
2022-10-11T11:49:39.301Z,95631.84
2022-10-11T11:52:12.911Z,95628.66
2022-10-11T11:54:52.153Z,95636.00
2022-10-11T11:57:30.810Z,95626.53
2022-10-11T12:00:05.361Z,95618.38
2022-10-11T12:02:45.833Z,95614.94
2022-10-11T12:05:18.203Z,95615.53
2022-10-11T12:08:06.028Z,95620.81
2022-10-11T12:10:39.966Z,95616.06
2022-10-11T12:13:20.771Z,95608.13
2022-10-11T12:16:10.982Z,95615.53
2022-10-11T12:18:50.950Z,95609.16
2022-10-11T12:21:27.465Z,95603.88
2022-10-11T12:23:56.680Z,95599.94
2022-10-11T12:26:43.472Z,95600.72
2022-10-11T12:29:45.065Z,95588.03
2022-10-11T12:32:49.495Z,95588.03
2022-10-11T12:36:08.247Z,95578.50
2022-10-11T12:38:40.231Z,95583.78
2022-10-11T12:41:50.462Z,95571.59
2022-10-11T12:44:23.865Z,95573.22
2022-10-11T12:47:29.755Z,95580.09
2022-10-11T12:50:13.088Z,95568.41
2022-10-11T12:52:51.487Z,95571.59
2022-10-11T12:55:43.292Z,95569.50
2022-10-11T12:58:38.538Z,95569.50
2022-10-11T13:01:22.052Z,95559.91
2022-10-11T13:03:58.604Z,95561.47
2022-10-11T13:06:30.186Z,95564.59
2022-10-11T13:09:04.737Z,95563.00
2022-10-11T13:11:36.814Z,95569.63
2022-10-11T13:14:11.105Z,95563.72
2022-10-11T13:17:05.412Z,95562.41
2022-10-11T13:19:35.035Z,95555.50
2022-10-11T13:22:06.559Z,95557.09
2022-10-11T13:24:41.004Z,95545.94
2022-10-11T13:27:19.779Z,95552.81
2022-10-11T13:29:49.617Z,95549.06
2022-10-11T13:32:23.774Z,95550.19
2022-10-11T13:37:30.990Z,95544.91
2022-10-11T13:39:59.833Z,95546.97
2022-10-11T13:42:32.740Z,95541.91
2022-10-11T13:45:01.616Z,95543.75
2022-10-11T13:47:32.694Z,95537.03
2022-10-11T13:50:12.013Z,95544.09
2022-10-11T13:52:55.083Z,95552.34
2022-10-11T13:55:33.640Z,95548.16
2022-10-11T13:58:09.696Z,95547.78
2022-10-11T14:00:39.270Z,95534.63
2022-10-11T14:03:18.555Z,95540.28
2022-10-11T14:05:54.898Z,95547.56
2022-10-11T14:08:26.335Z,95534.84
2022-10-11T14:10:57.885Z,95542.81
2022-10-11T14:13:32.228Z,95547.59
2022-10-11T14:16:02.154Z,95540.22
2022-10-11T14:18:39.641Z,95540.22
2022-10-11T14:21:31.656Z,95540.78
2022-10-11T14:24:01.314Z,95542.34
2022-10-11T14:26:34.892Z,95543.19
2022-10-11T14:29:08.838Z,95544.00
2022-10-11T14:31:41.768Z,95549.84
2022-10-11T14:34:18.769Z,95541.38
2022-10-11T14:36:47.059Z,95546.13
2022-10-11T14:39:17.921Z,95547.69
2022-10-11T14:41:46.546Z,95542.41
2022-10-11T14:44:16.753Z,95543.50
2022-10-11T14:46:45.972Z,95540.84
2022-10-11T14:49:15.819Z,95542.97
2022-10-11T14:51:45.346Z,95533.44
2022-10-11T14:54:14.667Z,95544.59
2022-10-11T14:56:42.911Z,95545.91
2022-10-11T14:59:12.399Z,95546.72
2022-10-11T15:01:42.397Z,95548.84
2022-10-11T15:04:10.579Z,95553.06
2022-10-11T15:06:40.964Z,95548.31
2022-10-11T15:09:09.648Z,95548.34
2022-10-11T15:11:38.154Z,95548.34
2022-10-11T15:14:06.691Z,95549.41
2022-10-11T15:16:35.387Z,95548.84
2022-10-11T15:19:04.873Z,95544.63
2022-10-11T15:21:33.348Z,95549.38
2022-10-11T15:24:01.297Z,95554.94
2022-10-11T15:26:30.568Z,95556.78
2022-10-11T15:28:59.111Z,95559.72
2022-10-11T15:31:27.229Z,95550.94
2022-10-11T15:33:59.446Z,95554.66
2022-10-11T15:36:29.629Z,95559.94
2022-10-11T15:38:57.941Z,95559.41
2022-10-11T15:41:26.010Z,95555.19
2022-10-11T15:43:53.985Z,95557.03
2022-10-11T15:46:23.484Z,95555.19
2022-10-11T15:48:52.701Z,95556.22
2022-10-11T15:51:20.851Z,95555.16
2022-10-11T15:53:50.160Z,95542.47
2022-10-11T15:56:19.852Z,95545.66
2022-10-11T15:58:48.252Z,95553.59
2022-10-11T16:01:19.183Z,95554.13
2022-10-11T16:03:48.416Z,95543.56
2022-10-11T16:06:17.196Z,95553.59
2022-10-11T16:08:45.592Z,95556.78
2022-10-11T16:11:15.294Z,95559.97
2022-10-11T16:13:43.329Z,95564.72
2022-10-11T16:16:12.749Z,95568.41
2022-10-11T16:18:41.169Z,95568.41
2022-10-11T16:21:11.219Z,95568.41
2022-10-11T16:23:39.800Z,95571.00
2022-10-11T16:26:10.446Z,95566.97
2022-10-11T16:28:40.292Z,95566.41
2022-10-11T16:31:09.429Z,95567.44
2022-10-11T16:33:45.728Z,95569.78
2022-10-11T16:36:36.064Z,95565.03
2022-10-11T16:39:08.865Z,95558.94
2022-10-11T16:41:37.099Z,95569.50
2022-10-11T16:44:06.951Z,95570.22
2022-10-11T16:46:35.780Z,95567.34
2022-10-11T16:49:04.461Z,95570.75
2022-10-11T16:51:32.485Z,95558.59
2022-10-11T16:54:00.598Z,95562.28
2022-10-11T16:56:28.590Z,95562.78
2022-10-11T16:58:57.057Z,95559.34
2022-10-11T17:01:26.864Z,95565.41
2022-10-11T17:03:55.821Z,95562.78
2022-10-11T17:06:25.405Z,95568.59
2022-10-11T17:08:53.827Z,95563.84
2022-10-11T17:11:22.644Z,95571.78
2022-10-11T17:13:53.462Z,95566.50
2022-10-11T17:16:22.554Z,95567.53
2022-10-11T17:18:52.279Z,95565.88
2022-10-11T17:21:22.124Z,95566.88
2022-10-11T17:23:50.533Z,95566.88
2022-10-11T17:26:21.133Z,95566.09
2022-10-11T17:28:49.194Z,95570.88
2022-10-11T17:31:18.100Z,95574.31
2022-10-11T17:33:46.084Z,95573.75
2022-10-11T17:36:18.514Z,95580.06
2022-10-11T17:38:46.583Z,95578.47
2022-10-11T17:41:14.631Z,95579.53
2022-10-11T17:43:42.644Z,95581.28
2022-10-11T17:46:13.800Z,95581.53
2022-10-11T17:48:42.381Z,95580.50
2022-10-11T17:51:12.300Z,95577.84
2022-10-11T17:53:42.140Z,95580.47
2022-10-11T17:56:12.065Z,95581.50
2022-10-11T17:58:40.255Z,95583.59
2022-10-11T18:01:11.958Z,95576.91
2022-10-11T18:03:40.426Z,95587.75
2022-10-11T18:06:10.443Z,95592.56
2022-10-11T18:08:41.207Z,95590.97
2022-10-11T18:11:14.003Z,95588.28
2022-10-11T18:13:45.981Z,95585.09
2022-10-11T18:16:15.024Z,95583.25
2022-10-11T18:18:43.609Z,95589.81
2022-10-11T18:21:12.556Z,95590.88
2022-10-11T18:23:41.010Z,95592.72
2022-10-11T18:26:16.367Z,95589.28
2022-10-11T18:28:44.954Z,95592.47
2022-10-11T18:31:15.806Z,95594.56
2022-10-11T18:33:46.059Z,95591.41
2022-10-11T18:36:15.603Z,95596.69
2022-10-11T18:38:46.663Z,95596.16
2022-10-11T18:41:18.831Z,95590.81
2022-10-11T18:43:50.462Z,95599.53
2022-10-11T18:46:18.649Z,95607.44
2022-10-11T18:48:48.747Z,95605.59
2022-10-11T18:51:19.423Z,95610.81
2022-10-11T18:53:48.287Z,95616.00
2022-10-11T18:56:20.949Z,95617.47
2022-10-11T18:58:50.788Z,95620.28
2022-10-11T19:01:21.263Z,95623.16
2022-10-11T19:03:52.772Z,95629.00
2022-10-11T19:06:23.395Z,95621.59
2022-10-11T19:08:53.505Z,95624.19
2022-10-11T19:11:25.337Z,95625.25
2022-10-11T19:13:56.936Z,95628.44
2022-10-11T19:16:25.759Z,95628.44
2022-10-11T19:18:54.570Z,95634.78
2022-10-11T19:21:23.332Z,95632.13
2022-10-11T19:23:51.425Z,95640.22
2022-10-11T19:26:21.184Z,95634.94
2022-10-11T19:28:56.487Z,95629.06
2022-10-11T19:31:25.010Z,95641.09
2022-10-11T19:33:53.352Z,95640.09
2022-10-11T19:36:21.500Z,95645.38
2022-10-11T19:38:51.510Z,95637.53
2022-10-11T19:41:20.976Z,95643.34
2022-10-11T19:43:51.412Z,95638.63
2022-10-11T19:46:44.396Z,95648.34
2022-10-11T19:49:10.271Z,95637.03
2022-10-11T19:51:38.305Z,95644.38
2022-10-11T19:54:09.059Z,95629.06
2022-10-11T19:56:37.664Z,95650.16
2022-10-11T19:59:07.485Z,95634.81
2022-10-11T20:01:37.363Z,95642.97
2022-10-11T20:04:07.508Z,95644.81
2022-10-11T20:06:38.751Z,95647.47
2022-10-11T20:09:28.511Z,95645.38
2022-10-11T20:11:55.668Z,95650.03
2022-10-11T20:14:25.423Z,95648.44
2022-10-11T20:16:53.374Z,95650.50
2022-10-11T20:19:27.760Z,95652.09
2022-10-11T20:21:57.390Z,95650.50
2022-10-11T20:24:27.499Z,95654.19
2022-10-11T20:26:55.609Z,95663.13
2022-10-11T20:29:26.411Z,95659.81
2022-10-11T20:31:56.285Z,95656.50
2022-10-11T20:34:24.333Z,95660.03
2022-10-11T20:36:52.278Z,95658.59
2022-10-11T20:39:20.428Z,95655.31
2022-10-11T20:41:48.518Z,95662.25
2022-10-11T20:44:17.936Z,95660.16
2022-10-11T20:46:47.310Z,95664.94
2022-10-11T20:49:15.389Z,95660.94
2022-10-11T20:51:43.875Z,95666.47
2022-10-11T20:54:12.487Z,95656.97
2022-10-11T20:56:41.768Z,95660.47
2022-10-11T20:59:10.149Z,95658.06
2022-10-11T21:01:40.471Z,95658.06
2022-10-11T21:04:15.583Z,95660.16
2022-10-11T21:06:43.617Z,95660.16
2022-10-11T21:09:14.073Z,95660.16
2022-10-11T21:11:44.540Z,95658.25
2022-10-11T21:14:12.607Z,95666.41
2022-10-11T21:16:40.655Z,95654.34
2022-10-11T21:19:15.782Z,95658.56
2022-10-11T21:21:46.405Z,95664.31
2022-10-11T21:24:16.427Z,95655.88
2022-10-11T21:26:44.405Z,95656.91
2022-10-11T21:29:12.385Z,95664.81
2022-10-11T21:31:40.872Z,95666.41
2022-10-11T21:34:10.251Z,95659.06
2022-10-11T21:36:38.189Z,95659.06
2022-10-11T21:39:06.192Z,95665.34
2022-10-11T21:41:34.193Z,95662.25
2022-10-11T21:44:02.181Z,95665.47
2022-10-11T21:49:21.428Z,95663.97
2022-10-11T21:51:49.477Z,95666.72
2022-10-11T21:54:17.793Z,95669.44
2022-10-11T21:56:45.947Z,95660.41
2022-10-11T21:59:14.074Z,95669.59
2022-10-11T22:01:42.525Z,95666.19
2022-10-11T22:04:10.990Z,95678.53
2022-10-11T22:06:40.712Z,95674.06
2022-10-11T22:09:09.547Z,95664.59
2022-10-11T22:11:38.015Z,95670.09
2022-10-11T22:14:06.165Z,95666.09
2022-10-11T22:16:35.528Z,95660.84
2022-10-11T22:19:03.571Z,95662.44
2022-10-11T22:21:31.630Z,95667.22
2022-10-11T22:24:01.165Z,95662.19
2022-10-11T22:26:31.134Z,95667.69
2022-10-11T22:29:00.481Z,95671.94
2022-10-11T22:31:29.860Z,95672.97
2022-10-11T22:33:59.198Z,95675.53
2022-10-11T22:36:27.967Z,95676.56
2022-10-11T22:38:55.935Z,95675.53
2022-10-11T22:41:25.280Z,95668.19
2022-10-11T22:43:53.360Z,95671.06
2022-10-11T22:46:21.373Z,95680.78
2022-10-11T22:48:49.319Z,95673.94
2022-10-11T22:51:17.361Z,95673.94
2022-10-11T22:53:45.417Z,95669.72
2022-10-11T22:56:13.545Z,95671.84
2022-10-11T22:58:42.989Z,95671.38
2022-10-11T23:01:12.826Z,95681.91
2022-10-11T23:03:41.003Z,95669.78
2022-10-11T23:06:09.722Z,95675.03
2022-10-11T23:08:37.734Z,95672.97
2022-10-11T23:11:06.738Z,95672.72
2022-10-11T23:13:35.066Z,95681.41
2022-10-11T23:16:08.143Z,95678.22
2022-10-11T23:18:36.372Z,95682.47
2022-10-11T23:21:05.835Z,95685.09
2022-10-11T23:23:34.501Z,95678.22
2022-10-11T23:26:07.531Z,95680.31
2022-10-11T23:28:36.122Z,95677.69
2022-10-11T23:31:09.760Z,95680.31
2022-10-11T23:33:37.837Z,95681.91
2022-10-11T23:36:06.852Z,95681.91
2022-10-11T23:38:34.797Z,95683.50
2022-10-11T23:41:02.717Z,95685.88
2022-10-11T23:43:30.704Z,95683.50
2022-10-11T23:45:58.708Z,95681.91
2022-10-11T23:48:28.471Z,95676.63
2022-10-11T23:50:56.416Z,95669.78
2022-10-11T23:53:24.381Z,95677.19
2022-10-11T23:55:52.362Z,95676.63
2022-10-11T23:58:20.492Z,95686.84
